createdAt,value
2018-05-23T00:00:24.479Z,67.9
2018-05-23T00:02:22.800Z,67.7
2018-05-23T00:03:22.233Z,67.9
2018-05-23T00:04:21.564Z,68
2018-05-23T00:05:20.887Z,67.7
2018-05-23T00:06:20.214Z,67.9
2018-05-23T00:07:19.144Z,67.5
2018-05-23T00:08:18.361Z,68.1
2018-05-23T00:08:48.490Z,68.1
2018-05-23T00:09:18.912Z,68.1
2018-05-23T00:09:49.730Z,68.1
2018-05-23T00:11:16.432Z,67.8
2018-05-23T00:12:15.749Z,68.3
2018-05-23T00:13:14.686Z,68.5
2018-05-23T00:14:14.006Z,68.7
2018-05-23T00:15:13.223Z,68.1
2018-05-23T00:15:43.487Z,68.1
2018-05-23T00:16:14.013Z,68.4
2018-05-23T00:17:11.727Z,68.3
2018-05-23T00:18:10.831Z,68.2
2018-05-23T00:19:10.158Z,68
2018-05-23T00:21:08.758Z,68.2
2018-05-23T00:22:08.089Z,68.8
2018-05-23T00:23:07.419Z,68.6
2018-05-23T00:24:06.528Z,69
2018-05-23T00:25:06.147Z,68.9
2018-05-23T00:26:05.081Z,68.8
2018-05-23T00:26:35.712Z,68.8
2018-05-23T00:27:05.846Z,68.5
2018-05-23T00:27:36.478Z,68.5
2018-05-23T00:28:07.008Z,68.1
2018-05-23T00:28:37.533Z,68.1
2018-05-23T00:30:02.528Z,69
2018-05-23T00:31:01.643Z,68.4
2018-05-23T00:32:00.642Z,68.5
2018-05-23T00:33:00.082Z,68.5
2018-05-23T00:33:59.581Z,68.8
2018-05-23T00:34:58.509Z,68.4
2018-05-23T00:35:57.736Z,69.3
2018-05-23T00:36:56.953Z,68.9
2018-05-23T00:37:27.080Z,68.9
2018-05-23T00:37:57.621Z,69.3
2018-05-23T00:38:28.364Z,69.3
2018-05-23T00:38:59.003Z,69
2018-05-23T00:39:29.641Z,69
2018-05-23T00:40:00.291Z,69.6
2018-05-23T00:40:30.828Z,69.6
2018-05-23T00:41:53.207Z,68.7
2018-05-23T00:42:52.421Z,68.6
2018-05-23T00:43:51.741Z,68.8
2018-05-23T00:44:50.958Z,69
2018-05-23T00:45:50.291Z,69.2
2018-05-23T00:46:49.610Z,69.4
2018-05-23T00:47:48.966Z,69
2018-05-23T00:48:48.165Z,69.7
2018-05-23T00:50:46.382Z,69.7
2018-05-23T00:51:46.231Z,70
2018-05-23T00:53:44.237Z,69.7
2018-05-23T00:54:43.566Z,69.8
2018-05-23T00:55:42.780Z,69.8
2018-05-23T00:57:41.379Z,70
2018-05-23T00:58:40.600Z,69.7
2018-05-23T00:59:39.925Z,69.9
2018-05-23T01:00:39.140Z,69.9
2018-05-23T01:02:37.849Z,69.9
2018-05-23T01:03:36.957Z,70.1
2018-05-23T01:04:36.282Z,69.7
2018-05-23T01:05:35.510Z,69.8
2018-05-23T01:06:34.951Z,69.9
2018-05-23T01:07:34.274Z,70.2
2018-05-23T01:08:33.406Z,70
2018-05-23T01:09:32.335Z,70.4
2018-05-23T01:10:02.646Z,70.4
2018-05-23T01:10:33.175Z,70.1
2018-05-23T01:11:31.171Z,69.9
2018-05-23T01:12:30.502Z,69.9
2018-05-23T01:13:29.336Z,69.9
2018-05-23T01:14:28.765Z,70.1
2018-05-23T01:15:28.085Z,70.2
2018-05-23T01:16:27.410Z,69.9
2018-05-23T01:17:26.350Z,69.9
2018-05-23T01:18:25.786Z,69.9
2018-05-23T01:19:25.235Z,70.1
2018-05-23T01:20:24.521Z,70
2018-05-23T01:21:23.343Z,70.2
2018-05-23T01:22:22.876Z,70.2
2018-05-23T01:23:22.200Z,70.2
2018-05-23T01:24:21.419Z,69.9
2018-05-23T01:25:20.633Z,70.1
2018-05-23T01:26:19.860Z,69.7
2018-05-23T01:27:19.071Z,69.8
2018-05-23T01:28:18.180Z,70
2018-05-23T01:29:17.581Z,70.4
2018-05-23T01:31:15.896Z,70.6
2018-05-23T01:32:15.408Z,70.3
2018-05-23T01:33:14.730Z,71
2018-05-23T01:34:13.504Z,70.8
2018-05-23T01:35:13.236Z,70.5
2018-05-23T01:35:43.774Z,70.5
2018-05-23T01:36:14.405Z,70.7
2018-05-23T01:36:45.049Z,70.7
2018-05-23T01:38:10.944Z,70.1
2018-05-23T01:39:10.054Z,70.2
2018-05-23T01:40:09.371Z,70.2
2018-05-23T01:41:08.796Z,70.4
2018-05-23T01:42:07.907Z,70.3
2018-05-23T01:43:07.234Z,70.6
2018-05-23T01:44:05.951Z,70.8
2018-05-23T01:45:05.787Z,70.8
2018-05-23T01:45:36.226Z,70.8
2018-05-23T01:46:06.650Z,70.7
2018-05-23T01:46:37.186Z,70.7
2018-05-23T01:47:07.628Z,70.8
2018-05-23T01:47:38.162Z,70.8
2018-05-23T01:49:02.326Z,71.1
2018-05-23T01:50:01.540Z,71
2018-05-23T01:52:59.651Z,71.6
2018-05-23T01:53:58.870Z,71.2
2018-05-23T01:55:57.476Z,70.7
2018-05-23T01:56:56.401Z,71
2018-05-23T01:57:55.839Z,71.3
2018-05-23T01:58:25.976Z,71.3
2018-05-23T01:58:56.501Z,71.1
2018-05-23T01:59:26.960Z,71.1
2018-05-23T02:00:53.489Z,71.5
2018-05-23T02:01:52.842Z,71.3
2018-05-23T02:02:51.948Z,71.1
2018-05-23T02:03:51.291Z,71.1
2018-05-23T02:04:50.514Z,71.1
2018-05-23T02:05:20.753Z,71.1
2018-05-23T02:05:51.284Z,71.6
2018-05-23T02:06:49.098Z,71.2
2018-05-23T02:07:48.309Z,71.4
2018-05-23T02:08:47.638Z,71.1
2018-05-23T02:10:18.037Z,70.9
2018-05-23T02:10:48.342Z,70.9
2018-05-23T02:11:45.030Z,71.8
2018-05-23T02:12:44.354Z,71.3
2018-05-23T02:13:43.677Z,71.5
2018-05-23T02:14:42.664Z,71.6
2018-05-23T02:15:13.157Z,71.6
2018-05-23T02:15:43.573Z,71.6
2018-05-23T02:16:13.812Z,71.6
2018-05-23T02:16:44.459Z,71.5
2018-05-23T02:17:14.974Z,71.5
2018-05-23T02:17:45.208Z,71.4
2018-05-23T02:18:15.735Z,71.4
2018-05-23T02:19:39.214Z,71.9
2018-05-23T02:20:38.143Z,71.8
2018-05-23T02:21:37.535Z,72
2018-05-23T02:22:36.747Z,71.6
2018-05-23T02:23:35.846Z,71.7
2018-05-23T02:24:35.164Z,72.2
2018-05-23T02:25:34.483Z,72.1
2018-05-23T02:26:05.127Z,72.1
2018-05-23T02:26:35.537Z,71.7
2018-05-23T02:27:06.093Z,71.7
2018-05-23T02:27:36.718Z,71.9
2018-05-23T02:28:06.840Z,71.9
2018-05-23T02:28:37.480Z,72
2018-05-23T02:29:07.997Z,72
2018-05-23T02:30:30.962Z,72.2
2018-05-23T02:31:30.185Z,72.8
2018-05-23T02:32:29.005Z,72.5
2018-05-23T02:33:28.434Z,72.4
2018-05-23T02:34:27.531Z,72.6
2018-05-23T02:35:26.849Z,72.6
2018-05-23T02:36:26.391Z,72.8
2018-05-23T02:37:25.624Z,72.3
2018-05-23T02:38:24.461Z,72
2018-05-23T02:39:24.076Z,72.2
2018-05-23T02:40:23.181Z,72.5
2018-05-23T02:42:21.663Z,72.8
2018-05-23T02:43:20.981Z,72.8
2018-05-23T02:44:20.308Z,72.8
2018-05-23T02:45:19.523Z,73
2018-05-23T02:46:18.234Z,73.3
2018-05-23T02:47:17.575Z,73.5
2018-05-23T02:48:17.020Z,73.7
2018-05-23T02:49:16.232Z,73.9
2018-05-23T02:50:15.662Z,73.6
2018-05-23T02:51:14.489Z,73.4
2018-05-23T02:52:13.727Z,73.9
2018-05-23T02:53:13.056Z,73.9
2018-05-23T02:54:12.480Z,73.8
2018-05-23T02:55:11.704Z,74.3
2018-05-23T02:56:11.021Z,74.5
2018-05-23T02:57:09.844Z,74.2
2018-05-23T02:58:09.292Z,74.1
2018-05-23T02:58:39.548Z,74.1
2018-05-23T03:00:07.953Z,74.4
2018-05-23T03:01:07.058Z,74.7
2018-05-23T03:02:06.281Z,74.7
2018-05-23T03:03:05.767Z,74.9
2018-05-23T03:04:04.547Z,74.9
2018-05-23T03:05:03.895Z,74.7
2018-05-23T03:06:03.213Z,74.9
2018-05-23T03:07:02.057Z,74.7
2018-05-23T03:08:01.380Z,74.4
2018-05-23T03:09:00.975Z,74.4
2018-05-23T03:09:31.605Z,74.4
2018-05-23T03:10:02.020Z,74.1
2018-05-23T03:10:59.222Z,74.2
2018-05-23T03:11:58.322Z,74.1
2018-05-23T03:12:57.578Z,74.1
2018-05-23T03:13:56.782Z,73.9
2018-05-23T03:15:55.503Z,73.9
2018-05-23T03:16:54.599Z,74.1
2018-05-23T03:17:53.811Z,74.3
2018-05-23T03:18:53.130Z,74.1
2018-05-23T03:19:52.354Z,74.3
2018-05-23T03:20:51.562Z,74.1
2018-05-23T03:21:50.658Z,73.8
2018-05-23T03:22:50.085Z,74
2018-05-23T03:23:49.296Z,74.5
2018-05-23T03:24:20.036Z,74.5
2018-05-23T03:24:50.547Z,73.7
2018-05-23T03:25:21.065Z,73.7
2018-05-23T03:27:46.226Z,74
2018-05-23T03:28:45.162Z,74.3
2018-05-23T03:29:44.477Z,73.9
2018-05-23T03:30:43.569Z,74.5
2018-05-23T03:31:42.837Z,74.5
2018-05-23T03:32:42.045Z,74.4
2018-05-23T03:33:41.265Z,74.3
2018-05-23T03:34:11.786Z,74.3
2018-05-23T03:34:42.417Z,74.2
2018-05-23T03:35:12.826Z,74.2
2018-05-23T03:35:43.570Z,74.1
2018-05-23T03:36:14.193Z,74.1
2018-05-23T03:37:38.276Z,74.5
2018-05-23T03:38:37.602Z,74.8
2018-05-23T03:39:36.920Z,74.3
2018-05-23T03:40:36.246Z,74.3
2018-05-23T03:41:35.170Z,74.2
2018-05-23T03:42:34.383Z,73.9
2018-05-23T03:43:33.590Z,73.6
2018-05-23T03:44:33.007Z,73.6
2018-05-23T03:45:32.117Z,73.7
2018-05-23T03:46:31.328Z,73.7
2018-05-23T03:47:30.656Z,74
2018-05-23T03:49:29.253Z,73.9
2018-05-23T03:50:28.576Z,73.7
2018-05-23T03:51:27.798Z,73.6
2018-05-23T03:52:26.519Z,73.8
2018-05-23T03:53:25.725Z,73.8
2018-05-23T03:53:56.350Z,73.8
2018-05-23T03:54:26.472Z,73.8
2018-05-23T03:54:57.094Z,73.8
2018-05-23T03:55:27.614Z,73.9
2018-05-23T03:56:23.804Z,74.1
2018-05-23T03:57:23.120Z,73.9
2018-05-23T03:58:22.231Z,74.1
2018-05-23T03:59:21.537Z,74.4
2018-05-23T04:00:20.362Z,74
2018-05-23T04:01:19.771Z,73.9
2018-05-23T04:02:18.873Z,73.6
2018-05-23T04:03:18.209Z,73.8
2018-05-23T04:03:48.456Z,73.8
2018-05-23T04:04:18.872Z,73.8
2018-05-23T04:04:49.515Z,73.8
2018-05-23T04:05:19.923Z,73.7
2018-05-23T04:05:50.552Z,73.7
2018-05-23T04:06:21.170Z,74.1
2018-05-23T04:06:51.687Z,74.1
2018-05-23T04:07:21.909Z,74.1
2018-05-23T04:07:52.434Z,74.1
2018-05-23T04:09:13.674Z,73.9
2018-05-23T04:10:12.992Z,74.2
2018-05-23T04:11:12.314Z,74.1
2018-05-23T04:12:11.235Z,74.1
2018-05-23T04:13:10.664Z,74.5
2018-05-23T04:14:09.981Z,74.6
2018-05-23T04:15:08.796Z,74.4
2018-05-23T04:15:39.428Z,74.4
2018-05-23T04:16:09.952Z,74.2
2018-05-23T04:16:40.465Z,74.2
2018-05-23T04:17:10.989Z,74.2
2018-05-23T04:17:41.614Z,74.2
2018-05-23T04:19:06.063Z,74.4
2018-05-23T04:20:04.769Z,74.5
2018-05-23T04:21:04.278Z,74.2
2018-05-23T04:22:03.487Z,74.1
2018-05-23T04:23:02.694Z,74
2018-05-23T04:24:01.815Z,74.3
2018-05-23T04:25:01.873Z,74.1
2018-05-23T04:26:59.459Z,74.6
2018-05-23T04:27:58.668Z,74.9
2018-05-23T04:28:29.188Z,74.9
2018-05-23T04:28:59.814Z,74.9
2018-05-23T04:29:57.617Z,75.2
2018-05-23T04:30:56.420Z,75.4
2018-05-23T04:31:55.912Z,75.2
2018-05-23T04:32:55.125Z,75.4
2018-05-23T04:33:54.444Z,75.5
2018-05-23T04:34:53.564Z,75.4
2018-05-23T04:35:52.667Z,75.1
2018-05-23T04:36:51.874Z,75
2018-05-23T04:38:50.586Z,75.1
2018-05-23T04:39:49.534Z,75.1
2018-05-23T04:40:48.859Z,75
2018-05-23T04:41:48.069Z,75.1
2018-05-23T04:42:47.390Z,75.2
2018-05-23T04:43:46.306Z,75.1
2018-05-23T04:45:45.016Z,75.1
2018-05-23T04:46:44.342Z,74.9
2018-05-23T04:47:14.579Z,74.9
2018-05-23T04:49:41.862Z,74.6
2018-05-23T04:50:40.968Z,74.8
2018-05-23T04:52:39.787Z,74.8
2018-05-23T04:53:38.705Z,74.5
2018-05-23T04:54:38.218Z,74.6
2018-05-23T04:55:37.323Z,75
2018-05-23T04:56:36.647Z,75
2018-05-23T04:58:35.031Z,74.7
2018-05-23T05:00:33.311Z,74.3
2018-05-23T05:01:32.803Z,74.1
2018-05-23T05:02:32.008Z,74.2
2018-05-23T05:03:02.750Z,74.2
2018-05-23T05:03:33.160Z,74.2
2018-05-23T05:04:30.458Z,74.6
2018-05-23T05:05:29.560Z,74.1
2018-05-23T05:06:28.873Z,73.1
2018-05-23T05:07:28.085Z,73.7
2018-05-23T05:08:27.399Z,74
2018-05-23T05:09:26.496Z,73.4
2018-05-23T05:24:14.933Z,71.9
2018-05-23T05:24:45.349Z,71.9
2018-05-23T05:25:16.090Z,71.8
2018-05-23T05:26:13.295Z,71.1
2018-05-23T05:28:11.906Z,70.1
2018-05-23T05:30:10.514Z,70.8
2018-05-23T05:31:09.944Z,70.6
2018-05-23T05:33:08.147Z,70.7
2018-05-23T05:34:07.478Z,71.3
2018-05-23T05:36:06.071Z,71.1
2018-05-23T05:37:05.384Z,71.7
2018-05-23T05:38:04.516Z,71.3
2018-05-23T05:39:03.740Z,71.4
2018-05-23T05:41:01.940Z,71.4
2018-05-23T05:42:01.345Z,71
2018-05-23T05:42:31.757Z,71
2018-05-23T05:43:59.775Z,70.9
2018-05-23T05:46:57.520Z,70.8
2018-05-23T05:47:57.065Z,70.5
2018-05-23T05:48:55.984Z,70.4
2018-05-23T05:49:55.281Z,71
2018-05-23T05:50:54.702Z,71
2018-05-23T05:51:53.806Z,70.7
2018-05-23T05:52:24.033Z,70.7
2018-05-23T05:52:54.442Z,70.1
2018-05-23T05:53:24.747Z,70.1
2018-05-23T05:54:51.736Z,70
2018-05-23T05:55:22.256Z,70
2018-05-23T05:55:52.562Z,70.2
2018-05-23T05:56:23.194Z,70.2
2018-05-23T05:57:49.288Z,69.3
2018-05-23T05:58:48.501Z,69.2
2018-05-23T05:59:47.720Z,69.4
2018-05-23T06:00:46.817Z,69.2
2018-05-23T06:01:46.639Z,69.2
2018-05-23T06:03:44.631Z,70.1
2018-05-23T06:04:44.094Z,69.9
2018-05-23T06:05:14.289Z,69.9
2018-05-23T06:05:44.913Z,69.7
2018-05-23T06:06:15.146Z,69.7
2018-05-23T06:06:45.777Z,68.9
2018-05-23T06:07:16.192Z,68.9
2018-05-23T06:08:41.180Z,68.4
2018-05-23T06:09:40.760Z,68.8
2018-05-23T06:10:39.529Z,68.8
2018-05-23T06:12:38.242Z,67.8
2018-05-23T06:13:37.349Z,68.1
2018-05-23T06:14:36.731Z,67.9
2018-05-23T06:15:36.044Z,68
2018-05-23T06:16:35.368Z,68.3
2018-05-23T06:17:34.696Z,67.7
2018-05-23T06:19:32.897Z,67.2
2018-05-23T06:20:32.601Z,67.6
2018-05-23T06:21:31.909Z,67.3
2018-05-23T06:22:30.719Z,66.7
2018-05-23T06:23:30.035Z,67
2018-05-23T06:24:29.258Z,66.7
2018-05-23T06:24:59.915Z,66.7
2018-05-23T06:25:30.540Z,66.3
2018-05-23T06:26:28.239Z,66.5
2018-05-23T06:27:27.234Z,66.2
2018-05-23T06:28:26.442Z,67
2018-05-23T06:29:25.770Z,67.1
2018-05-23T06:30:25.258Z,65.6
2018-05-23T06:31:24.431Z,64.5
2018-05-23T06:32:23.741Z,65.4
2018-05-23T06:35:21.324Z,65
2018-05-23T06:35:51.995Z,65
2018-05-23T06:37:20.145Z,63.7
2018-05-23T06:38:19.468Z,63.3
2018-05-23T06:39:18.774Z,63.1
2018-05-23T06:40:17.691Z,63.4
2018-05-23T06:41:17.451Z,63.2
2018-05-23T06:42:16.158Z,61.3
2018-05-23T06:43:15.873Z,61.9
2018-05-23T06:44:15.182Z,62.7
2018-05-23T06:46:13.507Z,61.9
2018-05-23T06:46:43.923Z,61.9
2018-05-23T06:47:14.221Z,62.5
2018-05-23T06:47:44.720Z,62.5
2018-05-23T06:48:15.347Z,62.2
2018-05-23T06:50:11.161Z,62.3
2018-05-23T06:51:09.763Z,61.9
2018-05-23T06:52:09.175Z,62.7
2018-05-23T06:53:08.889Z,62.5
2018-05-23T06:55:06.980Z,63.1
2018-05-23T06:56:06.611Z,64
2018-05-23T06:57:05.826Z,63.1
2018-05-23T06:58:05.133Z,63.6
2018-05-23T06:59:04.226Z,63.2
2018-05-23T07:00:03.545Z,63.4
2018-05-23T07:01:02.929Z,62.7
2018-05-23T07:02:02.264Z,63.4
2018-05-23T07:02:32.783Z,63.4
2018-05-23T07:03:03.416Z,62.8
2018-05-23T07:04:00.726Z,63.5
2018-05-23T07:05:00.048Z,63.7
2018-05-23T07:07:58.031Z,64.3
2018-05-23T07:08:57.334Z,63.1
2018-05-23T07:09:56.770Z,63
2018-05-23T07:12:54.748Z,63.8
2018-05-23T07:13:54.077Z,63.3
2018-05-23T07:15:52.679Z,62.7
2018-05-23T07:18:50.662Z,62.5
2018-05-23T07:19:49.970Z,62.3
2018-05-23T07:22:47.855Z,61.4
2018-05-23T07:25:45.576Z,61.4
2018-05-23T07:27:44.086Z,61.6
2018-05-23T07:28:43.807Z,61.6
2018-05-23T07:30:42.016Z,61.1
2018-05-23T07:31:41.906Z,61.2
2018-05-23T07:32:11.862Z,61.2
2018-05-23T07:32:42.269Z,61.6
2018-05-23T07:33:12.576Z,61.6
2018-05-23T07:34:39.363Z,61.5
2018-05-23T07:35:38.965Z,61.6
2018-05-23T07:36:38.283Z,61.5
2018-05-23T07:41:34.896Z,60.2
2018-05-23T07:42:33.989Z,59.8
2018-05-23T07:43:04.506Z,59.8
2018-05-23T07:44:32.792Z,59.9
2018-05-23T07:45:03.309Z,59.9
2018-05-23T07:45:33.469Z,59.4
2018-05-23T07:46:04.068Z,59.4
2018-05-23T07:47:30.874Z,58.6
2018-05-23T07:49:29.576Z,59
2018-05-23T07:52:27.166Z,59.2
2018-05-23T07:54:26.162Z,58.3
2018-05-23T07:55:25.377Z,59.2
2018-05-23T07:55:56.117Z,59.2
2018-05-23T07:57:23.789Z,59.1
2018-05-23T08:11:14.935Z,56.2
2018-05-23T08:20:08.815Z,52.9
2018-05-23T08:22:07.589Z,54.3
2018-05-23T08:34:59.667Z,52.8
2018-05-23T08:52:48.361Z,51.2
2018-05-23T09:05:39.843Z,50.7
2018-05-23T09:24:28.541Z,50.1
2018-05-23T09:24:59.198Z,50.1
2018-05-23T09:28:25.890Z,49.7
2018-05-23T09:51:12.241Z,49.3
2018-05-23T10:13:59.089Z,45.4
2018-05-23T10:22:54.421Z,42.6
2018-05-23T10:24:53.018Z,45.5
2018-05-23T10:29:50.498Z,44.6
2018-05-23T10:30:49.808Z,44.8
2018-05-23T10:34:47.409Z,45.6
2018-05-23T10:43:42.839Z,41.4
2018-05-23T11:04:31.395Z,46.7
2018-05-23T11:10:28.154Z,42.5
2018-05-23T11:13:26.740Z,44.6
2018-05-23T11:14:26.076Z,43.9
2018-05-23T11:23:21.498Z,39
2018-05-23T11:33:16.590Z,36.1
2018-05-23T11:39:13.736Z,37.5
2018-05-23T11:44:11.098Z,38.7
2018-05-23T12:56:39.458Z,43.8
2018-05-23T12:59:38.228Z,43.8
2018-05-23T13:00:08.635Z,43.8
2018-05-23T13:19:28.908Z,45.8
2018-05-23T13:28:24.333Z,46.5
2018-05-23T13:37:20.263Z,46.6
2018-05-23T13:45:16.087Z,45.4
2018-05-23T13:45:46.509Z,45.4
2018-05-23T14:04:06.404Z,46
2018-05-23T14:04:36.816Z,46
2018-05-23T14:05:07.237Z,47.1
2018-05-23T14:12:02.470Z,47.7
2018-05-23T14:13:01.672Z,48.3
2018-05-23T14:15:00.775Z,47.9
2018-05-23T14:15:31.182Z,47.9
2018-05-23T14:16:59.693Z,48.2
2018-05-23T14:17:29.901Z,48.2
2018-05-23T14:18:00.538Z,48.8
2018-05-23T14:18:59.008Z,49.5
2018-05-23T14:19:58.160Z,49.5
2018-05-23T14:20:57.645Z,50.7
2018-05-23T14:22:56.749Z,51.4
2018-05-23T14:23:55.950Z,51.1
2018-05-23T14:24:55.663Z,51.9
2018-05-23T14:25:54.989Z,52.5
2018-05-23T14:26:54.412Z,53.4
2018-05-23T14:27:24.824Z,53.4
2018-05-23T14:27:55.057Z,52.4
2018-05-23T14:28:25.593Z,52.4
2018-05-23T14:28:55.989Z,53.3
2018-05-23T14:29:52.824Z,54
2018-05-23T14:30:52.672Z,54.4
2018-05-23T14:31:51.985Z,54.1
2018-05-23T14:33:50.798Z,55.6
2018-05-23T14:34:50.290Z,55.9
2018-05-23T14:36:49.510Z,55.8
2018-05-23T14:37:48.834Z,55.6
2018-05-23T14:42:46.214Z,56.8
2018-05-23T14:43:16.726Z,56.8
2018-05-23T14:45:44.622Z,58.7
2018-05-23T14:46:43.713Z,57.3
2018-05-23T14:47:43.637Z,57
2018-05-23T14:49:42.353Z,57.3
2018-05-23T14:50:41.669Z,57.6
2018-05-23T14:51:41.494Z,57.7
2018-05-23T14:53:40.089Z,57.6
2018-05-23T14:54:39.901Z,57.9
2018-05-23T14:55:10.542Z,57.9
2018-05-23T14:55:40.764Z,57.5
2018-05-23T14:56:38.690Z,57.8
2018-05-23T14:57:37.897Z,57.9
2018-05-23T14:58:37.711Z,57.6
2018-05-23T15:00:36.717Z,58.3
2018-05-23T15:01:35.820Z,58.1
2018-05-23T15:02:35.137Z,58.6
2018-05-23T15:03:34.740Z,58.3
2018-05-23T15:04:34.451Z,58.6
2018-05-23T15:05:33.614Z,59.4
2018-05-23T15:06:33.315Z,59.3
2018-05-23T15:07:32.531Z,58.8
2018-05-23T15:08:32.310Z,61.1
2018-05-23T15:09:31.731Z,61.9
2018-05-23T15:10:31.332Z,60.9
2018-05-23T15:11:30.641Z,60.4
2018-05-23T15:12:30.061Z,60.8
2018-05-23T15:13:29.280Z,61.2
2018-05-23T15:13:59.908Z,61.2
2018-05-23T15:14:30.428Z,60.8
2018-05-23T15:15:01.064Z,60.8
2018-05-23T15:15:31.547Z,60.6
2018-05-23T15:16:01.992Z,60.6
2018-05-23T15:17:27.260Z,61.4
2018-05-23T15:18:26.571Z,61.2
2018-05-23T15:19:26.173Z,61.2
2018-05-23T15:20:25.613Z,61.6
2018-05-23T15:21:25.322Z,61.9
2018-05-23T15:22:24.429Z,62.6
2018-05-23T15:23:24.134Z,62.8
2018-05-23T15:25:23.018Z,64.6
2018-05-23T15:25:53.535Z,64.6
2018-05-23T15:26:24.163Z,64
2018-05-23T15:26:54.673Z,64
2018-05-23T15:27:25.189Z,63.7
2018-05-23T15:27:55.813Z,63.7
2018-05-23T15:28:26.452Z,64.8
2018-05-23T15:28:57.075Z,64.8
2018-05-23T15:30:20.040Z,65
2018-05-23T15:31:19.751Z,64.7
2018-05-23T15:33:18.484Z,64.7
2018-05-23T15:34:17.802Z,64.6
2018-05-23T15:36:16.897Z,64.4
2018-05-23T15:37:16.210Z,65.3
2018-05-23T15:38:15.922Z,64.8
2018-05-23T15:38:46.659Z,64.8
2018-05-23T15:40:14.447Z,64.7
2018-05-23T15:41:14.376Z,65.2
2018-05-23T15:42:13.606Z,65.3
2018-05-23T15:43:13.206Z,65.1
2018-05-23T15:44:12.522Z,65.5
2018-05-23T15:45:12.129Z,65.1
2018-05-23T15:46:11.451Z,65.3
2018-05-23T15:47:10.873Z,65.7
2018-05-23T15:48:10.482Z,65.5
2018-05-23T15:49:09.804Z,65.4
2018-05-23T15:50:09.236Z,65.8
2018-05-23T15:51:08.696Z,65.7
2018-05-23T15:52:07.935Z,65.9
2018-05-23T15:53:07.740Z,65.8
2018-05-23T15:54:06.735Z,65.4
2018-05-23T15:55:06.574Z,65.4
2018-05-23T15:56:05.816Z,66.2
2018-05-23T15:57:05.539Z,65.8
2018-05-23T15:57:36.160Z,65.8
2018-05-23T15:59:04.061Z,65.4
2018-05-23T15:59:34.683Z,65.4
2018-05-23T16:01:03.296Z,65
2018-05-23T16:02:02.402Z,64.3
2018-05-23T16:03:02.355Z,63.8
2018-05-23T16:04:01.402Z,64.7
2018-05-23T16:05:00.903Z,64.9
2018-05-23T16:06:00.248Z,64.5
2018-05-23T16:07:00.069Z,64.2
2018-05-23T16:07:59.382Z,64.1
2018-05-23T16:08:30.029Z,64.1
2018-05-23T16:09:00.160Z,63.9
2018-05-23T16:09:30.850Z,63.9
2018-05-23T16:10:00.906Z,63.4
2018-05-23T16:10:31.335Z,63.4
2018-05-23T16:11:01.873Z,63.9
2018-05-23T16:11:32.283Z,63.9
2018-05-23T16:12:02.802Z,63.9
2018-05-23T16:12:56.582Z,64.1
2018-05-23T16:13:56.173Z,64
2018-05-23T16:14:55.762Z,64.4
2018-05-23T16:15:54.981Z,63.8
2018-05-23T16:16:54.285Z,63.5
2018-05-23T16:17:53.605Z,63.1
2018-05-23T16:18:53.328Z,63.7
2018-05-23T16:19:52.645Z,65
2018-05-23T16:20:51.964Z,65.7
2018-05-23T16:21:51.391Z,65.1
2018-05-23T16:22:51.203Z,64.8
2018-05-23T16:23:50.419Z,64.9
2018-05-23T16:24:49.744Z,63.8
2018-05-23T16:29:47.123Z,64.3
2018-05-23T16:30:46.545Z,62.7
2018-05-23T16:32:45.428Z,62.9
2018-05-23T16:33:44.539Z,64.7
2018-05-23T16:34:44.250Z,59.3
2018-05-23T16:35:43.572Z,60.3
2018-05-23T16:36:14.204Z,60.3
2018-05-23T16:36:44.725Z,58.5
2018-05-23T16:37:15.349Z,58.5
2018-05-23T16:37:45.757Z,58.9
2018-05-23T16:38:42.059Z,58.4
2018-05-23T16:39:41.763Z,58.8
2018-05-23T16:40:41.082Z,60.6
2018-05-23T16:41:40.689Z,58.6
2018-05-23T16:42:39.793Z,59.8
2018-05-23T16:44:39.014Z,59.3
2018-05-23T16:45:38.216Z,60.4
2018-05-23T16:47:37.031Z,60.9
2018-05-23T16:48:36.357Z,62.2
2018-05-23T16:49:36.088Z,62.1
2018-05-23T16:50:35.398Z,61.7
2018-05-23T16:51:34.817Z,62.2
2018-05-23T16:52:34.256Z,61.9
2018-05-23T16:53:33.980Z,62.6
2018-05-23T16:55:32.801Z,62
2018-05-23T16:56:31.895Z,62.5
2018-05-23T16:57:02.420Z,62.5
2018-05-23T16:57:33.043Z,63.8
2018-05-23T16:58:03.615Z,63.8
2018-05-23T16:58:34.149Z,62.1
2018-05-23T16:59:30.560Z,63.3
2018-05-23T17:00:29.668Z,63.4
2018-05-23T17:02:28.984Z,63.2
2018-05-23T17:04:27.695Z,63.7
2018-05-23T17:05:26.903Z,63
2018-05-23T17:06:26.650Z,62.8
2018-05-23T17:06:57.206Z,62.8
2018-05-23T17:07:27.827Z,60
2018-05-23T17:07:57.947Z,60
2018-05-23T17:08:28.595Z,62.7
2018-05-23T17:08:59.114Z,62.7
2018-05-23T17:09:29.628Z,63.6
2018-05-23T17:10:00.041Z,63.6
2018-05-23T17:12:23.271Z,62.7
2018-05-23T17:14:21.893Z,63.4
2018-05-23T17:15:21.318Z,63.9
2018-05-23T17:16:21.138Z,64.4
2018-05-23T17:17:20.451Z,64.6
2018-05-23T17:19:19.555Z,62
2018-05-23T17:19:49.788Z,62
2018-05-23T17:20:20.309Z,62.8
2018-05-23T17:20:50.964Z,62.8
2018-05-23T17:22:17.476Z,63.7
2018-05-23T17:23:17.306Z,62.3
2018-05-23T17:24:16.396Z,61.7
2018-05-23T17:26:15.499Z,63.4
2018-05-23T17:28:14.198Z,63.1
2018-05-23T17:29:13.515Z,61
2018-05-23T17:31:12.532Z,62.3
2018-05-23T17:34:11.222Z,62
2018-05-23T17:36:09.728Z,56.4
2018-05-23T17:37:09.152Z,60.4
2018-05-23T17:39:08.357Z,60.7
2018-05-23T17:39:38.987Z,60.7
2018-05-23T17:41:07.093Z,61.3
2018-05-23T17:42:06.185Z,60.7
2018-05-23T17:43:05.907Z,61.3
2018-05-23T17:44:05.224Z,60.8
2018-05-23T17:45:04.939Z,60.6
2018-05-23T17:46:03.930Z,61.4
2018-05-23T17:48:02.921Z,62.2
2018-05-23T17:49:02.530Z,61.3
2018-05-23T17:49:32.942Z,61.3
2018-05-23T17:52:00.945Z,61.6
2018-05-23T17:52:31.260Z,61.6
2018-05-23T17:53:01.894Z,61.2
2018-05-23T17:53:32.558Z,61.2
2018-05-23T17:54:03.074Z,60.5
2018-05-23T17:54:59.474Z,60
2018-05-23T17:55:58.688Z,60.2
2018-05-23T17:56:57.863Z,60.7
2018-05-23T17:57:57.732Z,60.5
2018-05-23T17:58:56.838Z,61
2018-05-23T17:59:56.253Z,60.4
2018-05-23T18:00:55.679Z,58.5
2018-05-23T18:01:55.395Z,58.8
2018-05-23T18:02:25.897Z,58.8
2018-05-23T18:03:54.407Z,58.6
2018-05-23T18:04:53.624Z,58.6
2018-05-23T18:05:53.353Z,59.1
2018-05-23T18:06:52.345Z,59
2018-05-23T18:07:52.071Z,59.5
2018-05-23T18:08:51.489Z,59.5
2018-05-23T18:09:50.591Z,58.6
2018-05-23T18:10:50.412Z,57.2
2018-05-23T18:11:49.737Z,57.7
2018-05-23T18:12:49.049Z,58.7
2018-05-23T18:13:48.472Z,58
2018-05-23T18:14:47.790Z,58
2018-05-23T18:15:47.107Z,57.7
2018-05-23T18:16:46.712Z,58.1
2018-05-23T18:17:46.270Z,57.1
2018-05-23T18:18:45.898Z,57.8
2018-05-23T18:19:44.998Z,58.2
2018-05-23T18:20:44.731Z,58.2
2018-05-23T18:21:44.294Z,58.4
2018-05-23T18:24:42.064Z,57
2018-05-23T18:25:42.002Z,55.9
2018-05-23T18:26:40.822Z,53.5
2018-05-23T18:27:40.533Z,53.9
2018-05-23T18:28:39.751Z,55.2
2018-05-23T18:29:39.672Z,56.7
2018-05-23T18:30:38.879Z,56.7
2018-05-23T18:32:37.688Z,55.6
2018-05-23T18:33:37.073Z,55.3
2018-05-23T18:35:36.237Z,53.1
2018-05-23T18:36:35.345Z,55.2
2018-05-23T18:37:35.172Z,54.8
2018-05-23T18:38:34.233Z,52.8
2018-05-23T18:39:33.932Z,54.7
2018-05-23T18:40:33.140Z,55.1
2018-05-23T18:41:32.464Z,54.6
2018-05-23T18:42:32.275Z,52.9
2018-05-23T18:43:31.496Z,53.4
2018-05-23T18:44:30.702Z,53.5
2018-05-23T18:45:30.518Z,51.1
2018-05-23T18:47:29.125Z,50.6
2018-05-23T18:48:28.442Z,52.5
2018-05-23T18:48:59.078Z,52.5
2018-05-23T18:49:29.644Z,50.5
2018-05-23T18:49:59.701Z,50.5
2018-05-23T18:50:30.113Z,50.6
2018-05-23T18:51:00.631Z,50.6
2018-05-23T18:52:26.413Z,51.9
2018-05-23T18:54:25.008Z,50.5
2018-05-23T18:56:24.128Z,52
2018-05-23T18:57:23.219Z,52.5
2018-05-23T18:58:23.036Z,52
2018-05-23T18:59:22.030Z,51.5
2018-05-23T18:59:52.665Z,51.5
2018-05-23T19:00:22.895Z,49
2018-05-23T19:00:53.414Z,49
2018-05-23T19:01:23.751Z,50.5
2018-05-23T19:01:54.132Z,50.5
2018-05-23T19:03:20.124Z,49.7
2018-05-23T19:04:19.323Z,50.4
2018-05-23T19:05:18.739Z,50.1
2018-05-23T19:06:18.440Z,48.7
2018-05-23T19:07:17.641Z,51.6
2018-05-23T19:08:16.961Z,49.9
2018-05-23T19:10:15.815Z,49.7
2018-05-23T19:11:15.527Z,49.7
2018-05-23T19:12:14.777Z,50.1
2018-05-23T19:13:13.992Z,50.5
2018-05-23T19:13:44.507Z,50.5
2018-05-23T19:14:14.770Z,50.4
2018-05-23T19:15:13.081Z,50.7
2018-05-23T19:16:12.505Z,50.3
2018-05-23T19:17:11.729Z,51.5
2018-05-23T19:18:11.039Z,51.5
2018-05-23T19:19:10.859Z,51.2
2018-05-23T19:19:41.732Z,51.2
2018-05-23T19:21:09.545Z,51.3
2018-05-23T19:22:08.967Z,51.1
2018-05-23T19:23:08.173Z,51.4
2018-05-23T19:24:07.879Z,51.3
2018-05-23T19:25:07.197Z,51.2
2018-05-23T19:26:06.405Z,51.4
2018-05-23T19:27:05.886Z,50.7
2018-05-23T19:28:05.220Z,51.6
2018-05-23T19:29:05.043Z,51.8
2018-05-23T19:31:03.520Z,51.7
2018-05-23T19:31:33.830Z,51.7
2018-05-23T19:32:04.452Z,50.4
2018-05-23T19:32:34.971Z,50.4
2018-05-23T19:33:05.276Z,51.7
2018-05-23T19:33:36.030Z,51.7
2018-05-23T19:35:01.533Z,52